sensor_id;sensor_type;location;lat;lon;timestamp;pressure;altitude;pressure_sealevel;temperature;humidity
61018;BME280;48171;51.550;5.434;2022-12-07T00:01:26;101849.72;;;4.25;100.00
61018;BME280;48171;51.550;5.434;2022-12-07T00:03:54;101844.50;;;4.26;100.00
61018;BME280;48171;51.550;5.434;2022-12-07T00:06:22;101848.03;;;4.27;100.00
61018;BME280;48171;51.550;5.434;2022-12-07T00:08:48;101845.22;;;4.20;100.00
61018;BME280;48171;51.550;5.434;2022-12-07T00:11:16;101852.94;;;4.17;100.00
61018;BME280;48171;51.550;5.434;2022-12-07T00:13:43;101848.59;;;4.18;100.00
61018;BME280;48171;51.550;5.434;2022-12-07T00:16:14;101851.19;;;4.18;100.00
61018;BME280;48171;51.550;5.434;2022-12-07T00:18:40;101849.31;;;4.14;100.00
61018;BME280;48171;51.550;5.434;2022-12-07T00:21:10;101835.28;;;4.12;100.00
61018;BME280;48171;51.550;5.434;2022-12-07T00:23:35;101839.72;;;4.13;100.00
61018;BME280;48171;51.550;5.434;2022-12-07T00:26:09;101831.00;;;4.14;100.00
61018;BME280;48171;51.550;5.434;2022-12-07T00:28:35;101833.63;;;4.14;100.00
61018;BME280;48171;51.550;5.434;2022-12-07T00:31:10;101831.06;;;4.15;100.00
61018;BME280;48171;51.550;5.434;2022-12-07T00:33:36;101831.00;;;4.14;100.00
61018;BME280;48171;51.550;5.434;2022-12-07T00:36:06;101822.22;;;4.12;100.00
61018;BME280;48171;51.550;5.434;2022-12-07T00:38:34;101815.84;;;4.04;100.00
61018;BME280;48171;51.550;5.434;2022-12-07T00:41:21;101828.38;;;4.12;100.00
61018;BME280;48171;51.550;5.434;2022-12-07T00:43:47;101838.63;;;4.08;100.00
61018;BME280;48171;51.550;5.434;2022-12-07T00:46:14;101823.59;;;4.00;100.00
61018;BME280;48171;51.550;5.434;2022-12-07T00:48:39;101835.09;;;4.06;100.00
61018;BME280;48171;51.550;5.434;2022-12-07T00:51:06;101836.88;;;4.07;100.00
61018;BME280;48171;51.550;5.434;2022-12-07T00:53:34;101832.47;;;4.06;100.00
61018;BME280;48171;51.550;5.434;2022-12-07T00:56:08;101828.88;;;4.02;100.00
61018;BME280;48171;51.550;5.434;2022-12-07T00:58:34;101826.94;;;3.96;100.00
61018;BME280;48171;51.550;5.434;2022-12-07T01:01:01;101828.59;;;3.94;100.00
61018;BME280;48171;51.550;5.434;2022-12-07T01:03:27;101828.66;;;3.96;100.00
61018;BME280;48171;51.550;5.434;2022-12-07T01:05:54;101819.75;;;3.91;100.00
61018;BME280;48171;51.550;5.434;2022-12-07T01:08:20;101827.53;;;3.89;100.00
61018;BME280;48171;51.550;5.434;2022-12-07T01:10:46;101819.59;;;3.86;100.00
61018;BME280;48171;51.550;5.434;2022-12-07T01:13:11;101816.91;;;3.85;100.00
61018;BME280;48171;51.550;5.434;2022-12-07T01:15:43;101820.31;;;3.82;100.00
61018;BME280;48171;51.550;5.434;2022-12-07T01:18:09;101828.19;;;3.84;100.00
61018;BME280;48171;51.550;5.434;2022-12-07T01:20:35;101829.91;;;3.83;100.00
61018;BME280;48171;51.550;5.434;2022-12-07T01:23:01;101822.94;;;3.82;100.00
61018;BME280;48171;51.550;5.434;2022-12-07T01:25:26;101822.81;;;3.79;100.00
61018;BME280;48171;51.550;5.434;2022-12-07T01:27:52;101813.00;;;3.73;100.00
61018;BME280;48171;51.550;5.434;2022-12-07T01:30:17;101822.81;;;3.79;100.00
61018;BME280;48171;51.550;5.434;2022-12-07T01:32:42;101829.91;;;3.83;100.00
61018;BME280;48171;51.550;5.434;2022-12-07T01:35:08;101835.28;;;3.86;100.00
61018;BME280;48171;51.550;5.434;2022-12-07T01:37:35;101835.28;;;3.86;100.00
61018;BME280;48171;51.550;5.434;2022-12-07T01:40:01;101824.69;;;3.83;100.00
61018;BME280;48171;51.550;5.434;2022-12-07T01:42:27;101823.91;;;3.86;100.00
61018;BME280;48171;51.550;5.434;2022-12-07T01:47:46;101825.97;;;3.94;100.00
61018;BME280;48171;51.550;5.434;2022-12-07T01:50:13;101828.59;;;3.94;100.00
61018;BME280;48171;51.550;5.434;2022-12-07T01:52:39;101822.41;;;3.92;100.00
61018;BME280;48171;51.550;5.434;2022-12-07T01:55:09;101825.03;;;3.92;100.00
61018;BME280;48171;51.550;5.434;2022-12-07T01:57:39;101822.34;;;3.91;100.00
61018;BME280;48171;51.550;5.434;2022-12-07T02:00:07;101823.38;;;3.94;100.00
61018;BME280;48171;51.550;5.434;2022-12-07T02:02:36;101816.19;;;3.89;100.00
61018;BME280;48171;51.550;5.434;2022-12-07T02:05:04;101822.34;;;3.91;100.00
61018;BME280;48171;51.550;5.434;2022-12-07T02:07:31;101819.69;;;3.89;100.00
61018;BME280;48171;51.550;5.434;2022-12-07T02:09:57;101817.84;;;3.87;100.00
61018;BME280;48171;51.550;5.434;2022-12-07T02:12:23;101817.72;;;3.84;100.00
61018;BME280;48171;51.550;5.434;2022-12-07T02:14:50;101817.50;;;3.77;100.00
61018;BME280;48171;51.550;5.434;2022-12-07T02:17:25;101813.22;;;3.79;100.00
61018;BME280;48171;51.550;5.434;2022-12-07T02:23:00;101808.84;;;3.78;100.00
61018;BME280;48171;51.550;5.434;2022-12-07T02:25:47;101814.97;;;3.79;100.00
61018;BME280;48171;51.550;5.434;2022-12-07T02:30:52;101816.47;;;3.72;100.00
61018;BME280;48171;51.550;5.434;2022-12-07T02:33:26;101817.28;;;3.71;100.00
61018;BME280;48171;51.550;5.434;2022-12-07T02:36:00;101811.09;;;3.68;100.00
61018;BME280;48171;51.550;5.434;2022-12-07T02:38:31;101812.97;;;3.72;100.00
61018;BME280;48171;51.550;5.434;2022-12-07T02:41:17;101813.72;;;3.69;100.00
61018;BME280;48171;51.550;5.434;2022-12-07T02:43:48;101811.13;;;3.69;100.00
61018;BME280;48171;51.550;5.434;2022-12-07T02:46:18;101819.88;;;3.70;100.00
61018;BME280;48171;51.550;5.434;2022-12-07T02:48:45;101812.97;;;3.72;100.00
61018;BME280;48171;51.550;5.434;2022-12-07T02:51:11;101807.78;;;3.73;100.00
61018;BME280;48171;51.550;5.434;2022-12-07T02:53:39;101799.91;;;3.72;100.00
61018;BME280;48171;51.550;5.434;2022-12-07T02:56:40;101813.91;;;3.74;100.00
61018;BME280;48171;51.550;5.434;2022-12-07T03:04:52;101814.56;;;3.68;100.00
61018;BME280;48171;51.550;5.434;2022-12-07T03:07:27;101811.81;;;3.64;100.00
61018;BME280;48171;51.550;5.434;2022-12-07T03:12:47;101816.09;;;3.62;100.00
61018;BME280;48171;51.550;5.434;2022-12-07T03:15:26;101819.56;;;3.62;100.00
61018;BME280;48171;51.550;5.434;2022-12-07T03:17:55;101817.72;;;3.59;100.00
61018;BME280;48171;51.550;5.434;2022-12-07T03:20:23;101815.00;;;3.56;100.00
61018;BME280;48171;51.550;5.434;2022-12-07T03:22:50;101806.22;;;3.54;100.00
61018;BME280;48171;51.550;5.434;2022-12-07T03:25:18;101807.03;;;3.53;100.00
61018;BME280;48171;51.550;5.434;2022-12-07T03:27:53;101810.59;;;3.55;100.00
61018;BME280;48171;51.550;5.434;2022-12-07T03:30:23;101811.50;;;3.56;100.00
61018;BME280;48171;51.550;5.434;2022-12-07T03:33:03;101814.13;;;3.56;100.00
61018;BME280;48171;51.550;5.434;2022-12-07T03:35:45;101804.25;;;3.49;100.00
61018;BME280;48171;51.550;5.434;2022-12-07T03:38:24;101810.44;;;3.51;100.00
61018;BME280;48171;51.550;5.434;2022-12-07T03:41:00;101808.84;;;3.54;100.00
61018;BME280;48171;51.550;5.434;2022-12-07T03:43:29;101805.44;;;3.57;100.00
61018;BME280;48171;51.550;5.434;2022-12-07T03:48:34;101803.06;;;3.63;100.00
61018;BME280;48171;51.550;5.434;2022-12-07T03:51:22;101798.84;;;3.67;100.00
61018;BME280;48171;51.550;5.434;2022-12-07T03:53:54;101791.78;;;3.64;100.00
61018;BME280;48171;51.550;5.434;2022-12-07T03:56:24;101798.84;;;3.67;100.00
61018;BME280;48171;51.550;5.434;2022-12-07T03:58:52;101792.88;;;3.71;100.00
61018;BME280;48171;51.550;5.434;2022-12-07T04:01:18;101786.88;;;3.73;100.00
61018;BME280;48171;51.550;5.434;2022-12-07T04:03:43;101790.34;;;3.72;100.00
61018;BME280;48171;51.550;5.434;2022-12-07T04:06:09;101794.69;;;3.72;100.00
61018;BME280;48171;51.550;5.434;2022-12-07T04:08:34;101796.50;;;3.74;100.00
61018;BME280;48171;51.550;5.434;2022-12-07T04:10:59;101802.63;;;3.75;100.00
61018;BME280;48171;51.550;5.434;2022-12-07T04:13:25;101798.25;;;3.74;100.00
61018;BME280;48171;51.550;5.434;2022-12-07T04:15:50;101805.34;;;3.78;100.00
61018;BME280;48171;51.550;5.434;2022-12-07T04:18:15;101797.38;;;3.75;100.00
61018;BME280;48171;51.550;5.434;2022-12-07T04:20:41;101799.00;;;3.71;100.00
61018;BME280;48171;51.550;5.434;2022-12-07T04:23:06;101798.25;;;3.74;100.00
61018;BME280;48171;51.550;5.434;2022-12-07T04:25:31;101803.56;;;3.77;100.00
61018;BME280;48171;51.550;5.434;2022-12-07T04:27:57;101803.63;;;3.78;100.00
61018;BME280;48171;51.550;5.434;2022-12-07T04:30:22;101801.88;;;3.79;100.00
61018;BME280;48171;51.550;5.434;2022-12-07T04:32:47;101799.44;;;3.84;100.00
61018;BME280;48171;51.550;5.434;2022-12-07T04:35:12;101790.72;;;3.83;100.00
61018;BME280;48171;51.550;5.434;2022-12-07T04:37:38;101791.66;;;3.85;100.00
61018;BME280;48171;51.550;5.434;2022-12-07T04:40:07;101783.75;;;3.84;100.00
61018;BME280;48171;51.550;5.434;2022-12-07T04:42:32;101787.31;;;3.86;100.00
61018;BME280;48171;51.550;5.434;2022-12-07T04:44:57;101787.31;;;3.86;100.00
61018;BME280;48171;51.550;5.434;2022-12-07T04:47:23;101783.00;;;3.86;100.00
61018;BME280;48171;51.550;5.434;2022-12-07T04:49:48;101781.03;;;3.80;100.00
61018;BME280;48171;51.550;5.434;2022-12-07T04:52:13;101788.97;;;3.84;100.00
61018;BME280;48171;51.550;5.434;2022-12-07T04:54:38;101795.88;;;3.81;100.00
61018;BME280;48171;51.550;5.434;2022-12-07T04:57:04;101792.44;;;3.83;100.00
61018;BME280;48171;51.550;5.434;2022-12-07T04:59:29;101787.88;;;3.77;100.00
61018;BME280;48171;51.550;5.434;2022-12-07T05:01:54;101780.09;;;3.78;100.00
61018;BME280;48171;51.550;5.434;2022-12-07T05:04:19;101785.19;;;3.75;100.00
61018;BME280;48171;51.550;5.434;2022-12-07T05:06:45;101780.75;;;3.73;100.00
61018;BME280;48171;51.550;5.434;2022-12-07T05:09:10;101776.31;;;3.70;100.00
61018;BME280;48171;51.550;5.434;2022-12-07T05:11:35;101771.03;;;3.69;100.00
61018;BME280;48171;51.550;5.434;2022-12-07T05:14:11;101777.19;;;3.71;100.00
61018;BME280;48171;51.550;5.434;2022-12-07T05:16:37;101781.47;;;3.69;100.00
61018;BME280;48171;51.550;5.434;2022-12-07T05:19:03;101782.34;;;3.68;100.00
61018;BME280;48171;51.550;5.434;2022-12-07T05:21:29;101779.59;;;3.65;100.00
61018;BME280;48171;51.550;5.434;2022-12-07T05:23:54;101780.38;;;3.62;100.00
61018;BME280;48171;51.550;5.434;2022-12-07T05:26:19;101775.88;;;3.58;100.00
61018;BME280;48171;51.550;5.434;2022-12-07T05:28:45;101782.81;;;3.57;100.00
61018;BME280;48171;51.550;5.434;2022-12-07T05:31:14;101775.66;;;3.52;100.00
61018;BME280;48171;51.550;5.434;2022-12-07T05:33:39;101773.75;;;3.48;100.00
61018;BME280;48171;51.550;5.434;2022-12-07T05:36:05;101771.97;;;3.47;100.00
61018;BME280;48171;51.550;5.434;2022-12-07T05:38:32;101775.47;;;3.47;100.00
61018;BME280;48171;51.550;5.434;2022-12-07T05:41:02;101785.88;;;3.46;100.00
61018;BME280;48171;51.550;5.434;2022-12-07T05:43:28;101779.66;;;3.42;100.00
61018;BME280;48171;51.550;5.434;2022-12-07T05:45:54;101773.53;;;3.42;100.00
61018;BME280;48171;51.550;5.434;2022-12-07T05:48:19;101763.91;;;3.40;100.00
61018;BME280;48171;51.550;5.434;2022-12-07T05:50:47;101762.09;;;3.38;100.00
61018;BME280;48171;51.550;5.434;2022-12-07T05:53:13;101767.31;;;3.38;100.00
61018;BME280;48171;51.550;5.434;2022-12-07T05:55:38;101767.31;;;3.38;100.00
61018;BME280;48171;51.550;5.434;2022-12-07T05:58:04;101764.56;;;3.35;100.00
61018;BME280;48171;51.550;5.434;2022-12-07T06:00:48;101772.41;;;3.35;100.00
61018;BME280;48171;51.550;5.434;2022-12-07T06:03:13;101760.91;;;3.30;100.00
61018;BME280;48171;51.550;5.434;2022-12-07T06:05:38;101763.44;;;3.28;100.00
61018;BME280;48171;51.550;5.434;2022-12-07T06:08:03;101771.16;;;3.25;100.00
61018;BME280;48171;51.550;5.434;2022-12-07T06:10:29;101772.78;;;3.22;100.00
61018;BME280;48171;51.550;5.434;2022-12-07T06:12:54;101764.88;;;3.20;100.00
61018;BME280;48171;51.550;5.434;2022-12-07T06:15:19;101771.78;;;3.18;100.00
61018;BME280;48171;51.550;5.434;2022-12-07T06:17:44;101772.56;;;3.15;100.00
61018;BME280;48171;51.550;5.434;2022-12-07T06:20:10;101772.34;;;3.11;100.00
61018;BME280;48171;51.550;5.434;2022-12-07T06:22:35;101775.81;;;3.10;100.00
61018;BME280;48171;51.550;5.434;2022-12-07T06:25:00;101774.00;;;3.07;100.00
61018;BME280;48171;51.550;5.434;2022-12-07T06:27:26;101780.88;;;3.05;100.00
61018;BME280;48171;51.550;5.434;2022-12-07T06:29:51;101781.75;;;3.06;100.00
61018;BME280;48171;51.550;5.434;2022-12-07T06:32:17;101784.47;;;3.09;100.00
61018;BME280;48171;51.550;5.434;2022-12-07T06:34:42;101782.78;;;3.09;100.00
61018;BME280;48171;51.550;5.434;2022-12-07T06:37:07;101784.66;;;3.13;100.00
61018;BME280;48171;51.550;5.434;2022-12-07T06:39:32;101783.88;;;3.16;100.00
61018;BME280;48171;51.550;5.434;2022-12-07T06:41:59;101777.94;;;3.20;100.00
61018;BME280;48171;51.550;5.434;2022-12-07T06:44:25;101788.50;;;3.23;100.00
61018;BME280;48171;51.550;5.434;2022-12-07T06:46:51;101781.44;;;3.20;100.00
61018;BME280;48171;51.550;5.434;2022-12-07T06:49:16;101775.19;;;3.17;100.00
61018;BME280;48171;51.550;5.434;2022-12-07T06:51:42;101777.00;;;3.18;100.00
61018;BME280;48171;51.550;5.434;2022-12-07T06:54:09;101775.41;;;3.22;100.00
61018;BME280;48171;51.550;5.434;2022-12-07T06:56:34;101773.50;;;3.17;100.00
61018;BME280;48171;51.550;5.434;2022-12-07T06:58:59;101772.56;;;3.15;100.00
61018;BME280;48171;51.550;5.434;2022-12-07T07:01:25;101771.72;;;3.16;100.00
61018;BME280;48171;51.550;5.434;2022-12-07T07:03:50;101779.44;;;3.13;100.00
61018;BME280;48171;51.550;5.434;2022-12-07T07:06:15;101771.53;;;3.12;100.00
61018;BME280;48171;51.550;5.434;2022-12-07T07:08:41;101778.50;;;3.11;100.00
61018;BME280;48171;51.550;5.434;2022-12-07T07:11:07;101785.53;;;3.14;100.00
61018;BME280;48171;51.550;5.434;2022-12-07T07:13:33;101792.53;;;3.15;100.00
61018;BME280;48171;51.550;5.434;2022-12-07T07:15:58;101791.72;;;3.16;100.00
61018;BME280;48171;51.550;5.434;2022-12-07T07:18:24;101785.72;;;3.18;100.00
61018;BME280;48171;51.550;5.434;2022-12-07T07:20:50;101800.50;;;3.18;100.00
61018;BME280;48171;51.550;5.434;2022-12-07T07:23:16;101793.53;;;3.18;100.00
61018;BME280;48171;51.550;5.434;2022-12-07T07:25:41;101797.03;;;3.19;100.00
61018;BME280;48171;51.550;5.434;2022-12-07T07:28:07;101790.75;;;3.14;100.00
61018;BME280;48171;51.550;5.434;2022-12-07T07:30:32;101795.28;;;3.18;100.00
61018;BME280;48171;51.550;5.434;2022-12-07T07:32:59;101796.16;;;3.18;100.00
61018;BME280;48171;51.550;5.434;2022-12-07T07:35:25;101787.38;;;3.16;100.00
61018;BME280;48171;51.550;5.434;2022-12-07T07:37:51;101788.25;;;3.17;100.00
61018;BME280;48171;51.550;5.434;2022-12-07T07:40:16;101787.50;;;3.19;100.00
61018;BME280;48171;51.550;5.434;2022-12-07T07:42:42;101789.34;;;3.22;100.00
61018;BME280;48171;51.550;5.434;2022-12-07T07:45:08;101789.41;;;3.24;100.00
61018;BME280;48171;51.550;5.434;2022-12-07T07:47:33;101779.72;;;3.21;100.00
61018;BME280;48171;51.550;5.434;2022-12-07T07:49:59;101784.06;;;3.20;100.00
61018;BME280;48171;51.550;5.434;2022-12-07T07:52:24;101791.06;;;3.22;100.00
61018;BME280;48171;51.550;5.434;2022-12-07T07:54:50;101787.69;;;3.24;100.00
61018;BME280;48171;51.550;5.434;2022-12-07T07:57:16;101782.53;;;3.26;100.00
61018;BME280;48171;51.550;5.434;2022-12-07T07:59:42;101784.28;;;3.27;100.00
61018;BME280;48171;51.550;5.434;2022-12-07T08:02:13;101790.28;;;3.24;100.00
61018;BME280;48171;51.550;5.434;2022-12-07T08:04:39;101798.22;;;3.27;100.00
61018;BME280;48171;51.550;5.434;2022-12-07T08:07:04;101784.94;;;3.21;100.00
61018;BME280;48171;51.550;5.434;2022-12-07T08:09:30;101789.41;;;3.24;100.00
61018;BME280;48171;51.550;5.434;2022-12-07T08:11:55;101806.78;;;3.23;100.00
61018;BME280;48171;51.550;5.434;2022-12-07T08:14:20;101801.38;;;3.18;100.00
61018;BME280;48171;51.550;5.434;2022-12-07T08:16:45;101803.19;;;3.19;100.00
61018;BME280;48171;51.550;5.434;2022-12-07T08:19:11;101788.72;;;3.07;100.00
61018;BME280;48171;51.550;5.434;2022-12-07T08:21:37;101809.13;;;3.15;100.00
61018;BME280;48171;51.550;5.434;2022-12-07T08:24:02;101815.31;;;3.19;100.00
61018;BME280;48171;51.550;5.434;2022-12-07T08:26:28;101814.59;;;3.23;100.00
61018;BME280;48171;51.550;5.434;2022-12-07T08:28:53;101808.56;;;3.24;100.00
61018;BME280;48171;51.550;5.434;2022-12-07T08:31:19;101814.88;;;3.29;100.00
61018;BME280;48171;51.550;5.434;2022-12-07T08:33:46;101810.59;;;3.31;100.00
61018;BME280;48171;51.550;5.434;2022-12-07T08:36:12;101822.25;;;3.41;100.00
61018;BME280;48171;51.550;5.434;2022-12-07T08:38:39;101823.28;;;3.45;100.00
61018;BME280;48171;51.550;5.434;2022-12-07T08:41:05;101820.81;;;3.49;100.00
61018;BME280;48171;51.550;5.434;2022-12-07T08:43:30;101826.19;;;3.52;100.00
61018;BME280;48171;51.550;5.434;2022-12-07T08:46:09;101822.00;;;3.57;100.00
61018;BME280;48171;51.550;5.434;2022-12-07T08:48:39;101820.34;;;3.59;100.00
61018;BME280;48171;51.550;5.434;2022-12-07T08:51:05;101810.78;;;3.60;100.00
61018;BME280;48171;51.550;5.434;2022-12-07T08:53:32;101810.78;;;3.60;100.00
61018;BME280;48171;51.550;5.434;2022-12-07T08:55:59;101810.00;;;3.63;100.00
61018;BME280;48171;51.550;5.434;2022-12-07T08:58:25;101811.75;;;3.62;100.00
61018;BME280;48171;51.550;5.434;2022-12-07T09:00:50;101810.06;;;3.64;100.00
61018;BME280;48171;51.550;5.434;2022-12-07T09:03:16;101806.69;;;3.67;100.00
61018;BME280;48171;51.550;5.434;2022-12-07T09:05:41;101808.47;;;3.68;100.00
61018;BME280;48171;51.550;5.434;2022-12-07T09:08:07;101799.69;;;3.66;100.00
61018;BME280;48171;51.550;5.434;2022-12-07T09:10:33;101798.97;;;3.70;100.00
61018;BME280;48171;51.550;5.434;2022-12-07T09:12:58;101803.41;;;3.72;100.00
61018;BME280;48171;51.550;5.434;2022-12-07T09:15:27;101799.28;;;3.79;100.00
61018;BME280;48171;51.550;5.434;2022-12-07T09:17:53;101804.50;;;3.79;100.00
61018;BME280;48171;51.550;5.434;2022-12-07T09:20:18;101803.72;;;3.81;100.00
61018;BME280;48171;51.550;5.434;2022-12-07T09:22:44;101800.13;;;3.78;100.00
61018;BME280;48171;51.550;5.434;2022-12-07T09:25:09;101797.44;;;3.76;100.00
61018;BME280;48171;51.550;5.434;2022-12-07T09:27:34;101801.00;;;3.78;100.00
61018;BME280;48171;51.550;5.434;2022-12-07T09:30:00;101804.50;;;3.79;100.00
61018;BME280;48171;51.550;5.434;2022-12-07T09:32:25;101805.28;;;3.76;100.00
61018;BME280;48171;51.550;5.434;2022-12-07T09:34:51;101807.03;;;3.76;100.00
61018;BME280;48171;51.550;5.434;2022-12-07T09:37:16;101806.91;;;3.73;100.00
61018;BME280;48171;51.550;5.434;2022-12-07T09:39:41;101807.69;;;3.70;100.00
61018;BME280;48171;51.550;5.434;2022-12-07T09:42:07;101813.84;;;3.72;100.00
61018;BME280;48171;51.550;5.434;2022-12-07T09:44:34;101812.19;;;3.74;100.00
61018;BME280;48171;51.550;5.434;2022-12-07T09:47:01;101809.56;;;3.74;100.00
61018;BME280;48171;51.550;5.434;2022-12-07T09:49:29;101814.00;;;3.77;100.00
61018;BME280;48171;51.550;5.434;2022-12-07T09:52:17;101815.03;;;3.80;100.00
61018;BME280;48171;51.550;5.434;2022-12-07T09:54:46;101802.69;;;3.76;100.00
61018;BME280;48171;51.550;5.434;2022-12-07T09:57:12;101809.06;;;3.85;100.00
61018;BME280;48171;51.550;5.434;2022-12-07T09:59:38;101803.06;;;3.87;100.00
61018;BME280;48171;51.550;5.434;2022-12-07T10:02:37;101807.75;;;3.96;100.00
61018;BME280;48171;51.550;5.434;2022-12-07T10:05:06;101803.47;;;3.99;100.00
61018;BME280;48171;51.550;5.434;2022-12-07T10:07:32;101804.50;;;4.03;100.00
61018;BME280;48171;51.550;5.434;2022-12-07T10:09:57;101790.59;;;4.04;100.00
61018;BME280;48171;51.550;5.434;2022-12-07T10:12:23;101796.13;;;4.13;100.00
61018;BME280;48171;51.550;5.434;2022-12-07T10:14:59;101782.25;;;4.16;100.00
61018;BME280;48171;51.550;5.434;2022-12-07T10:17:29;101788.69;;;4.26;100.00
61018;BME280;48171;51.550;5.434;2022-12-07T10:25:21;101784.66;;;4.35;100.00
61018;BME280;48171;51.550;5.434;2022-12-07T10:28:11;101786.56;;;4.39;100.00
61018;BME280;48171;51.550;5.434;2022-12-07T10:30:59;101779.59;;;4.40;100.00
61018;BME280;48171;51.550;5.434;2022-12-07T10:33:36;101780.63;;;4.45;100.00
61018;BME280;48171;51.550;5.434;2022-12-07T10:36:17;101776.44;;;4.50;100.00
61018;BME280;48171;51.550;5.434;2022-12-07T10:38:47;101774.75;;;4.52;100.00
61018;BME280;48171;51.550;5.434;2022-12-07T10:41:13;101766.13;;;4.55;100.00
61018;BME280;48171;51.550;5.434;2022-12-07T10:43:46;101763.59;;;4.58;100.00
61018;BME280;48171;51.550;5.434;2022-12-07T10:46:36;101763.84;;;4.66;100.00
61018;BME280;48171;51.550;5.434;2022-12-07T10:49:29;101762.31;;;4.72;100.00
61018;BME280;48171;51.550;5.434;2022-12-07T11:00:08;101756.81;;;4.92;100.00
61018;BME280;48171;51.550;5.434;2022-12-07T11:05:45;101748.50;;;5.05;100.00
61018;BME280;48171;51.550;5.434;2022-12-07T11:13:55;101731.41;;;5.18;100.00
61018;BME280;48171;51.550;5.434;2022-12-07T11:16:33;101736.94;;;5.27;100.00
61018;BME280;48171;51.550;5.434;2022-12-07T11:19:34;101730.03;;;5.31;100.00
61018;BME280;48171;51.550;5.434;2022-12-07T11:22:10;101740.59;;;5.34;100.00
61018;BME280;48171;51.550;5.434;2022-12-07T11:24:50;101728.38;;;5.34;100.00
61018;BME280;48171;51.550;5.434;2022-12-07T11:30:10;101732.97;;;5.41;100.00
61018;BME280;48171;51.550;5.434;2022-12-07T11:33:25;101723.50;;;5.47;100.00
61018;BME280;48171;51.550;5.434;2022-12-07T11:36:04;101727.00;;;5.47;100.00
61018;BME280;48171;51.550;5.434;2022-12-07T11:38:46;101720.03;;;5.48;100.00
61018;BME280;48171;51.550;5.434;2022-12-07T11:41:20;101713.00;;;5.47;100.00
61018;BME280;48171;51.550;5.434;2022-12-07T11:46:20;101710.50;;;5.50;100.00
61018;BME280;48171;51.550;5.434;2022-12-07T11:51:39;101713.88;;;5.47;100.00
61018;BME280;48171;51.550;5.434;2022-12-07T11:54:16;101709.47;;;5.45;100.00
61018;BME280;48171;51.550;5.434;2022-12-07T11:56:43;101700.66;;;5.43;100.00
61018;BME280;48171;51.550;5.434;2022-12-07T11:59:20;101697.97;;;5.39;100.00
61018;BME280;48171;51.550;5.434;2022-12-07T12:01:52;101698.94;;;5.43;100.00
61018;BME280;48171;51.550;5.434;2022-12-07T12:04:34;101691.00;;;5.40;100.00
61018;BME280;48171;51.550;5.434;2022-12-07T12:07:06;101687.50;;;5.39;100.00
61018;BME280;48171;51.550;5.434;2022-12-07T12:09:35;101696.41;;;5.46;100.00
61018;BME280;48171;51.550;5.434;2022-12-07T12:12:31;101693.84;;;5.49;100.00
61018;BME280;48171;51.550;5.434;2022-12-07T12:20:26;101683.63;;;5.58;100.00
61018;BME280;48171;51.550;5.434;2022-12-07T12:23:23;101681.84;;;5.57;100.00
61018;BME280;48171;51.550;5.434;2022-12-07T12:25:57;101673.03;;;5.55;100.00
61018;BME280;48171;51.550;5.434;2022-12-07T12:31:13;101667.84;;;5.57;99.39
61018;BME280;48171;51.550;5.434;2022-12-07T12:33:44;101666.84;;;5.52;96.52
61018;BME280;48171;51.550;5.434;2022-12-07T12:46:55;101664.84;;;5.43;96.25
61018;BME280;48171;51.550;5.434;2022-12-07T12:51:52;101652.44;;;5.36;96.62
61018;BME280;48171;51.550;5.434;2022-12-07T12:57:05;101643.72;;;5.35;97.58
61018;BME280;48171;51.550;5.434;2022-12-07T12:59:40;101647.28;;;5.39;97.82
61018;BME280;48171;51.550;5.434;2022-12-07T13:02:28;101639.41;;;5.37;98.12
61018;BME280;48171;51.550;5.434;2022-12-07T13:18:44;101624.91;;;5.52;99.63
61018;BME280;48171;51.550;5.434;2022-12-07T13:31:38;101622.00;;;5.41;98.57
61018;BME280;48171;51.550;5.434;2022-12-07T13:34:27;101599.00;;;5.31;98.19
61018;BME280;48171;51.550;5.434;2022-12-07T13:36:50;101614.91;;;5.37;98.49
61018;BME280;48171;51.550;5.434;2022-12-07T13:39:22;101610.47;;;5.34;98.45
61018;BME280;48171;51.550;5.434;2022-12-07T13:41:52;101595.50;;;5.30;98.70
61018;BME280;48171;51.550;5.434;2022-12-07T13:44:18;101599.00;;;5.31;98.73
61018;BME280;48171;51.550;5.434;2022-12-07T13:46:55;101595.47;;;5.29;99.27
61018;BME280;48171;51.550;5.434;2022-12-07T13:49:26;101601.69;;;5.32;99.64
61018;BME280;48171;51.550;5.434;2022-12-07T13:51:53;101588.47;;;5.28;99.48
61018;BME280;48171;51.550;5.434;2022-12-07T13:54:19;101584.16;;;5.30;99.52
61018;BME280;48171;51.550;5.434;2022-12-07T13:56:50;101582.53;;;5.35;99.76
61018;BME280;48171;51.550;5.434;2022-12-07T13:59:18;101573.84;;;5.36;100.00
61018;BME280;48171;51.550;5.434;2022-12-07T14:01:46;101580.00;;;5.38;100.00
61018;BME280;48171;51.550;5.434;2022-12-07T14:04:33;101584.47;;;5.42;100.00
61018;BME280;48171;51.550;5.434;2022-12-07T14:06:59;101574.81;;;5.39;100.00
61018;BME280;48171;51.550;5.434;2022-12-07T14:09:28;101576.53;;;5.39;100.00
61018;BME280;48171;51.550;5.434;2022-12-07T14:11:56;101570.41;;;5.38;100.00
61018;BME280;48171;51.550;5.434;2022-12-07T14:14:30;101573.13;;;5.43;100.00
61018;BME280;48171;51.550;5.434;2022-12-07T14:17:20;101572.31;;;5.44;100.00
61018;BME280;48171;51.550;5.434;2022-12-07T14:19:49;101569.72;;;5.46;99.87
61018;BME280;48171;51.550;5.434;2022-12-07T14:22:30;101559.91;;;5.38;99.68
61018;BME280;48171;51.550;5.434;2022-12-07T14:25:16;101568.81;;;5.45;100.00
61018;BME280;48171;51.550;5.434;2022-12-07T14:27:57;101570.56;;;5.45;100.00
61018;BME280;48171;51.550;5.434;2022-12-07T14:30:30;101575.75;;;5.41;100.00
61018;BME280;48171;51.550;5.434;2022-12-07T14:33:00;101567.72;;;5.37;99.24
61018;BME280;48171;51.550;5.434;2022-12-07T14:35:26;101568.50;;;5.33;96.86
61018;BME280;48171;51.550;5.434;2022-12-07T14:37:51;101566.75;;;5.32;97.09
61018;BME280;48171;51.550;5.434;2022-12-07T14:40:25;101552.66;;;5.28;97.89